Time,TemperatureF,DewpointF,PressureIn,WindDirection,WindDirectionDegrees,WindSpeedMPH,WindSpeedGustMPH,Humidity,HourlyPrecipIn,Conditions,Clouds,dailyrainin,SoftwareType,DateUTC
2013-02-26 00:01:00,21.0,16.0,-100.00,WNW,284,11.0,17.0,78,-99.99,,,-99.99,,2013-02-26 07:01:00,
2013-02-26 00:11:00,22.0,16.0,-100.00,WNW,285,13.0,16.0,78,-99.99,,,-99.99,,2013-02-26 07:11:00,
2013-02-26 00:22:00,22.0,16.0,-100.00,WNW,285,13.0,16.0,78,-99.99,,,-99.99,,2013-02-26 07:22:00,
2013-02-26 00:31:00,22.0,16.0,-100.00,WNW,285,13.0,16.0,78,-99.99,,,-99.99,,2013-02-26 07:31:00,
2013-02-26 00:41:00,22.0,16.0,-100.00,WNW,285,13.0,16.0,78,-99.99,,,-99.99,,2013-02-26 07:41:00,
2013-02-26 02:31:00,21.0,16.0,-100.00,West,267,8.0,10.0,82,-99.99,,,-99.99,,2013-02-26 09:31:00,
2013-02-26 02:43:00,21.0,16.0,-100.00,West,273,8.0,11.0,83,-99.99,,,-99.99,,2013-02-26 09:43:00,
2013-02-26 02:51:00,20.0,16.0,-100.00,WNW,291,9.0,11.0,83,-99.99,,,-99.99,,2013-02-26 09:51:00,
2013-02-26 03:01:00,20.0,16.0,-100.00,WNW,293,10.0,12.0,83,-99.99,,,-99.99,,2013-02-26 10:01:00,
2013-02-26 03:11:00,21.0,15.0,-100.00,WSW,255,11.0,14.0,75,-99.99,,,-99.99,,2013-02-26 10:11:00,
2013-02-26 03:21:00,21.0,14.0,-100.00,WSW,248,11.0,17.0,74,-99.99,,,-99.99,,2013-02-26 10:21:00,
2013-02-26 03:31:00,21.0,14.0,-100.00,WSW,248,11.0,17.0,74,-99.99,,,-99.99,,2013-02-26 10:31:00,
2013-02-26 03:41:00,21.0,13.0,-100.00,WSW,256,13.0,16.0,71,-99.99,,,-99.99,,2013-02-26 10:41:00,
2013-02-26 03:51:00,21.0,13.0,-100.00,WSW,256,13.0,16.0,71,-99.99,,,-99.99,,2013-02-26 10:51:00,
2013-02-26 04:01:00,20.0,14.0,-100.00,West,281,14.0,17.0,78,-99.99,,,-99.99,,2013-02-26 11:01:00,
2013-02-26 04:11:00,20.0,14.0,-100.00,West,281,14.0,17.0,78,-99.99,,,-99.99,,2013-02-26 11:11:00,
2013-02-26 04:21:00,19.0,14.0,-100.00,West,268,12.0,19.0,78,-99.99,,,-99.99,,2013-02-26 11:21:00,
2013-02-26 04:31:00,19.0,14.0,-100.00,West,268,11.0,17.0,77,-99.99,,,-99.99,,2013-02-26 11:31:00,
2013-02-26 04:41:00,19.0,14.0,-100.00,West,268,11.0,17.0,77,-99.99,,,-99.99,,2013-02-26 11:41:00,
2013-02-26 04:52:00,20.0,12.0,-100.00,WSW,249,16.0,19.0,70,-99.99,,,-99.99,,2013-02-26 11:52:00,
2013-02-26 05:01:00,20.0,12.0,-100.00,WSW,249,16.0,19.0,70,-99.99,,,-99.99,,2013-02-26 12:01:00,
2013-02-26 05:11:00,18.0,13.0,-100.00,NW,308,7.0,12.0,78,-99.99,,,-99.99,,2013-02-26 12:11:00,
2013-02-26 05:22:00,18.0,13.0,-100.00,NW,308,7.0,12.0,78,-99.99,,,-99.99,,2013-02-26 12:22:00,
2013-02-26 05:32:00,19.0,14.0,-100.00,WNW,292,10.0,11.0,80,-99.99,,,-99.99,,2013-02-26 12:32:00,
2013-02-26 05:42:00,18.0,15.0,-100.00,WNW,284,6.0,10.0,85,-99.99,,,-99.99,,2013-02-26 12:42:00,
2013-02-26 05:52:00,18.0,15.0,-100.00,WNW,284,6.0,10.0,85,-99.99,,,-99.99,,2013-02-26 12:52:00,
2013-02-26 06:01:00,19.0,15.0,-100.00,WNW,295,7.0,9.0,85,-99.99,,,-99.99,,2013-02-26 13:01:00,
2013-02-26 06:11:00,19.0,16.0,-100.00,West,275,10.0,14.0,87,-99.99,,,-99.99,,2013-02-26 13:11:00,
2013-02-26 06:21:00,19.0,16.0,-100.00,West,275,10.0,14.0,87,-99.99,,,-99.99,,2013-02-26 13:21:00,
2013-02-26 06:31:00,19.0,15.0,-100.00,WSW,258,16.0,22.0,84,-99.99,,,-99.99,,2013-02-26 13:31:00,
2013-02-26 06:42:00,19.0,15.0,-100.00,WSW,258,16.0,22.0,84,-99.99,,,-99.99,,2013-02-26 13:42:00,
2013-02-26 06:51:00,19.0,15.0,-100.00,WSW,257,14.0,22.0,83,-99.99,,,-99.99,,2013-02-26 13:51:00,
2013-02-26 07:01:00,19.0,15.0,-100.00,WSW,257,14.0,22.0,83,-99.99,,,-99.99,,2013-02-26 14:01:00,
2013-02-26 07:11:00,20.0,15.0,-100.00,West,261,14.0,19.0,81,-99.99,,,-99.99,,2013-02-26 14:11:00,
2013-02-26 07:21:00,20.0,15.0,-100.00,West,261,14.0,19.0,81,-99.99,,,-99.99,,2013-02-26 14:21:00,
2013-02-26 07:31:00,20.0,15.0,-100.00,West,261,14.0,19.0,81,-99.99,,,-99.99,,2013-02-26 14:31:00,
2013-02-26 07:41:00,20.0,14.0,-100.00,West,268,10.0,17.0,77,-99.99,,,-99.99,,2013-02-26 14:41:00,
2013-02-26 07:52:00,20.0,14.0,-100.00,West,268,10.0,17.0,77,-99.99,,,-99.99,,2013-02-26 14:52:00,
2013-02-26 08:01:00,20.0,14.0,-100.00,West,268,10.0,17.0,77,-99.99,,,-99.99,,2013-02-26 15:01:00,
2013-02-26 08:11:00,20.0,14.0,-100.00,West,267,8.0,18.0,77,-99.99,,,-99.99,,2013-02-26 15:11:00,
2013-02-26 08:21:00,20.0,14.0,-100.00,West,267,8.0,18.0,77,-99.99,,,-99.99,,2013-02-26 15:21:00,
2013-02-26 08:32:00,20.0,15.0,-100.00,West,263,14.0,18.0,79,-99.99,,,-99.99,,2013-02-26 15:32:00,
2013-02-26 08:41:00,20.0,15.0,-100.00,West,267,8.0,14.0,79,-99.99,,,-99.99,,2013-02-26 15:41:00,
2013-02-26 08:51:00,20.0,15.0,-100.00,West,281,11.0,15.0,80,-99.99,,,-99.99,,2013-02-26 15:51:00,
2013-02-26 09:01:00,20.0,15.0,-100.00,West,281,11.0,15.0,80,-99.99,,,-99.99,,2013-02-26 16:01:00,
2013-02-26 09:11:00,19.0,16.0,-100.00,WNW,289,12.0,15.0,86,-99.99,,,-99.99,,2013-02-26 16:11:00,
2013-02-26 09:22:00,19.0,16.0,-100.00,WNW,289,12.0,15.0,86,-99.99,,,-99.99,,2013-02-26 16:22:00,
2013-02-26 09:31:00,19.0,16.0,-100.00,WNW,289,12.0,15.0,86,-99.99,,,-99.99,,2013-02-26 16:31:00,
2013-02-26 09:41:00,20.0,16.0,-100.00,WNW,290,8.0,13.0,85,-99.99,,,-99.99,,2013-02-26 16:41:00,
2013-02-26 09:51:00,21.0,16.0,-100.00,WNW,288,9.0,13.0,82,-99.99,,,-99.99,,2013-02-26 16:51:00,
2013-02-26 10:01:00,21.0,16.0,-100.00,WNW,288,9.0,13.0,82,-99.99,,,-99.99,,2013-02-26 17:01:00,
2013-02-26 10:11:00,21.0,15.0,-100.00,West,271,13.0,18.0,74,-99.99,,,-99.99,,2013-02-26 17:11:00,
2013-02-26 10:21:00,22.0,14.0,-100.00,West,265,12.0,16.0,73,-99.99,,,-99.99,,2013-02-26 17:21:00,
2013-02-26 10:32:00,22.0,14.0,-100.00,West,265,12.0,16.0,73,-99.99,,,-99.99,,2013-02-26 17:32:00,
2013-02-26 10:41:00,22.0,14.0,-100.00,West,273,12.0,14.0,71,-99.99,,,-99.99,,2013-02-26 17:41:00,
2013-02-26 10:52:00,23.0,15.0,-100.00,West,260,11.0,17.0,70,-99.99,,,-99.99,,2013-02-26 17:52:00,
2013-02-26 11:00:00,23.0,15.0,-100.00,West,263,16.0,20.0,70,-99.99,,,-99.99,,2013-02-26 18:00:00,
2013-02-26 11:01:00,23.0,14.0,-100.00,West,264,12.0,15.0,69,-99.99,,,-99.99,,2013-02-26 18:01:00,
2013-02-26 11:12:00,22.0,14.0,-100.00,West,265,15.0,17.0,69,-99.99,,,-99.99,,2013-02-26 18:12:00,
2013-02-26 11:21:00,22.0,14.0,-100.00,West,265,15.0,17.0,69,-99.99,,,-99.99,,2013-02-26 18:21:00,
2013-02-26 11:32:00,23.0,15.0,-100.00,West,263,16.0,20.0,70,-99.99,,,-99.99,,2013-02-26 18:32:00,
2013-02-26 11:42:00,23.0,15.0,-100.00,West,263,16.0,20.0,70,-99.99,,,-99.99,,2013-02-26 18:42:00,
2013-02-26 11:52:00,23.0,15.0,-100.00,West,263,16.0,20.0,70,-99.99,,,-99.99,,2013-02-26 18:52:00,
2013-02-26 15:01:00,24.0,16.0,-100.00,WSW,253,13.0,18.0,70,-99.99,,,-99.99,,2013-02-26 22:01:00,
2013-02-26 15:11:00,24.0,16.0,-100.00,WSW,253,13.0,18.0,70,-99.99,,,-99.99,,2013-02-26 22:11:00,
2013-02-26 15:21:00,24.0,13.0,-100.00,WSW,251,17.0,24.0,63,-99.99,,,-99.99,,2013-02-26 22:21:00,
2013-02-26 15:31:00,24.0,13.0,-100.00,WSW,251,17.0,24.0,63,-99.99,,,-99.99,,2013-02-26 22:31:00,
2013-02-26 15:41:00,24.0,13.0,-100.00,WSW,247,15.0,22.0,61,-99.99,,,-99.99,,2013-02-26 22:41:00,
2013-02-26 15:51:00,24.0,13.0,-100.00,WSW,245,18.0,24.0,61,-99.99,,,-99.99,,2013-02-26 22:51:00,
2013-02-26 16:01:00,24.0,13.0,-100.00,WSW,245,18.0,24.0,61,-99.99,,,-99.99,,2013-02-26 23:01:00,
2013-02-26 16:11:00,24.0,12.0,-100.00,WSW,252,19.0,25.0,60,-99.99,,,-99.99,,2013-02-26 23:11:00,
2013-02-26 16:21:00,24.0,12.0,-100.00,WSW,252,19.0,25.0,60,-99.99,,,-99.99,,2013-02-26 23:21:00,
2013-02-26 16:31:00,24.0,12.0,-100.00,WSW,253,12.0,19.0,60,-99.99,,,-99.99,,2013-02-26 23:31:00,
2013-02-26 16:41:00,24.0,12.0,-100.00,WSW,253,12.0,19.0,60,-99.99,,,-99.99,,2013-02-26 23:41:00,
2013-02-26 16:51:00,24.0,12.0,-100.00,WSW,253,12.0,19.0,60,-99.99,,,-99.99,,2013-02-26 23:51:00,
2013-02-26 17:01:00,24.0,13.0,-100.00,WSW,249,12.0,18.0,61,-99.99,,,-99.99,,2013-02-27 00:01:00,
2013-02-26 17:11:00,23.0,12.0,-100.00,WSW,253,12.0,19.0,62,-99.99,,,-99.99,,2013-02-27 00:11:00,
2013-02-26 17:21:00,23.0,12.0,-100.00,WSW,253,12.0,19.0,62,-99.99,,,-99.99,,2013-02-27 00:21:00,
2013-02-26 17:31:00,23.0,12.0,-100.00,WSW,253,12.0,19.0,62,-99.99,,,-99.99,,2013-02-27 00:31:00,
2013-02-26 17:41:00,24.0,11.0,-100.00,WSW,252,7.0,12.0,57,-99.99,,,-99.99,,2013-02-27 00:41:00,
2013-02-26 17:51:00,24.0,11.0,-100.00,WSW,252,7.0,12.0,57,-99.99,,,-99.99,,2013-02-27 00:51:00,
2013-02-26 18:01:00,23.0,11.0,-100.00,SW,233,7.0,10.0,61,-99.99,,,-99.99,,2013-02-27 01:01:00,
2013-02-26 18:11:00,21.0,11.0,-100.00,WNW,283,5.0,10.0,63,-99.99,,,-99.99,,2013-02-27 01:11:00,
2013-02-26 18:21:00,21.0,11.0,-100.00,WNW,283,5.0,10.0,63,-99.99,,,-99.99,,2013-02-27 01:21:00,
2013-02-26 18:31:00,21.0,11.0,-100.00,WNW,283,5.0,10.0,63,-99.99,,,-99.99,,2013-02-27 01:31:00,
2013-02-26 18:41:00,20.0,10.0,-100.00,West,262,6.0,8.0,63,-99.99,,,-99.99,,2013-02-27 01:41:00,
2013-02-26 18:51:00,21.0,11.0,-100.00,SW,231,10.0,16.0,65,-99.99,,,-99.99,,2013-02-27 01:51:00,
2013-02-26 19:01:00,21.0,11.0,-100.00,SW,231,10.0,16.0,65,-99.99,,,-99.99,,2013-02-27 02:01:00,
2013-02-26 19:13:00,20.0,10.0,-100.00,West,264,8.0,11.0,64,-99.99,,,-99.99,,2013-02-27 02:13:00,
2013-02-26 19:22:00,20.0,10.0,-100.00,West,264,8.0,11.0,64,-99.99,,,-99.99,,2013-02-27 02:22:00,
2013-02-26 19:31:00,19.0,11.0,-100.00,SE,128,2.0,4.0,69,-99.99,,,-99.99,,2013-02-27 02:31:00,
2013-02-26 19:41:00,19.0,11.0,-100.00,West,278,4.0,7.0,72,-99.99,,,-99.99,,2013-02-27 02:41:00,
2013-02-26 19:52:00,19.0,11.0,-100.00,West,278,4.0,7.0,72,-99.99,,,-99.99,,2013-02-27 02:52:00,
2013-02-26 20:01:00,18.0,11.0,-100.00,WNW,297,8.0,12.0,73,-99.99,,,-99.99,,2013-02-27 03:01:00,
2013-02-26 20:11:00,18.0,12.0,-100.00,WNW,290,7.0,11.0,74,-99.99,,,-99.99,,2013-02-27 03:11:00,
2013-02-26 20:21:00,18.0,12.0,-100.00,West,277,6.0,9.0,75,-99.99,,,-99.99,,2013-02-27 03:21:00,
2013-02-26 20:31:00,18.0,12.0,-100.00,West,277,6.0,9.0,75,-99.99,,,-99.99,,2013-02-27 03:31:00,
2013-02-26 20:41:00,18.0,12.0,-100.00,WSW,254,6.0,9.0,76,-99.99,,,-99.99,,2013-02-27 03:41:00,
2013-02-26 20:51:00,18.0,12.0,-100.00,WSW,254,6.0,9.0,76,-99.99,,,-99.99,,2013-02-27 03:51:00,
2013-02-26 21:01:00,18.0,12.0,-100.00,West,266,7.0,11.0,74,-99.99,,,-99.99,,2013-02-27 04:01:00,
2013-02-26 21:11:00,18.0,10.0,-100.00,WNW,288,8.0,10.0,70,-99.99,,,-99.99,,2013-02-27 04:11:00,
2013-02-26 21:21:00,18.0,10.0,-100.00,WNW,288,8.0,10.0,70,-99.99,,,-99.99,,2013-02-27 04:21:00,
2013-02-26 21:31:00,18.0,10.0,-100.00,WNW,288,8.0,10.0,70,-99.99,,,-99.99,,2013-02-27 04:31:00,
2013-02-26 21:41:00,18.0,10.0,-100.00,West,278,6.0,8.0,72,-99.99,,,-99.99,,2013-02-27 04:41:00,
2013-02-26 21:51:00,17.0,10.0,-100.00,West,269,7.0,8.0,72,-99.99,,,-99.99,,2013-02-27 04:51:00,
2013-02-26 22:01:00,17.0,10.0,-100.00,West,269,7.0,8.0,72,-99.99,,,-99.99,,2013-02-27 05:01:00,
2013-02-26 22:11:00,15.0,8.0,-100.00,North,0,0.0,4.0,75,-99.99,,,-99.99,,2013-02-27 05:11:00,
2013-02-26 22:22:00,15.0,8.0,-100.00,North,0,0.0,4.0,75,-99.99,,,-99.99,,2013-02-27 05:22:00,
2013-02-26 22:32:00,16.0,10.0,-100.00,East,79,3.0,4.0,76,-99.99,,,-99.99,,2013-02-27 05:32:00,
2013-02-26 22:41:00,16.0,10.0,-100.00,East,79,3.0,4.0,76,-99.99,,,-99.99,,2013-02-27 05:41:00,
2013-02-26 22:52:00,16.0,10.0,-100.00,East,79,3.0,4.0,76,-99.99,,,-99.99,,2013-02-27 05:52:00,
2013-02-26 23:02:00,13.0,7.0,-100.00,West,271,1.0,4.0,76,-99.99,,,-99.99,,2013-02-27 06:02:00,
2013-02-26 23:11:00,11.0,6.0,-100.00,West,276,4.0,4.0,77,-99.99,,,-99.99,,2013-02-27 06:11:00,
2013-02-26 23:21:00,11.0,6.0,-100.00,West,276,4.0,4.0,77,-99.99,,,-99.99,,2013-02-27 06:21:00,
2013-02-26 23:32:00,10.0,5.0,-100.00,West,271,1.0,2.0,79,-99.99,,,-99.99,,2013-02-27 06:32:00,
2013-02-26 23:41:00,10.0,5.0,-100.00,West,270,3.0,4.0,79,-99.99,,,-99.99,,2013-02-27 06:41:00,
2013-02-26 23:51:00,10.0,5.0,-100.00,West,270,3.0,4.0,79,-99.99,,,-99.99,,2013-02-27 06:51:00,